createdAt,value
2019-03-03T00:00:25.535Z,87.80
2019-03-03T00:01:25.484Z,87.45
2019-03-03T00:02:25.477Z,87.66
2019-03-03T00:03:25.459Z,87.24
2019-03-03T00:04:25.448Z,87.45
2019-03-03T00:05:25.457Z,87.14
2019-03-03T00:06:25.525Z,87.55
2019-03-03T00:07:25.422Z,87.14
2019-03-03T00:08:25.413Z,87.97
2019-03-03T00:09:25.398Z,87.66
2019-03-03T00:10:25.429Z,87.24
2019-03-03T00:11:25.378Z,87.55
2019-03-03T00:12:25.359Z,87.62
2019-03-03T00:13:25.349Z,87.35
2019-03-03T00:14:25.340Z,87.41
2019-03-03T00:15:25.326Z,87.51
2019-03-03T00:16:25.332Z,87.51
2019-03-03T00:17:25.301Z,87.72
2019-03-03T00:18:25.297Z,87.82
2019-03-03T00:19:25.283Z,86.47
2019-03-03T00:20:25.273Z,86.54
2019-03-03T00:21:25.282Z,87.10
2019-03-03T00:22:25.249Z,87.20
2019-03-03T00:23:25.245Z,87.51
2019-03-03T00:24:25.227Z,87.41
2019-03-03T00:25:25.226Z,87.20
2019-03-03T00:26:25.245Z,87.20
2019-03-03T00:27:25.192Z,87.20
2019-03-03T00:28:25.182Z,87.20
2019-03-03T00:29:25.173Z,86.79
2019-03-03T00:30:25.218Z,86.79
2019-03-03T00:31:25.180Z,86.27
2019-03-03T00:32:25.139Z,86.89
2019-03-03T00:33:25.132Z,87.10
2019-03-03T00:34:25.117Z,87.27
2019-03-03T00:35:25.104Z,87.41
2019-03-03T00:36:25.103Z,86.75
2019-03-03T00:37:25.107Z,87.62
2019-03-03T00:38:25.081Z,87.47
2019-03-03T00:39:25.061Z,87.62
2019-03-03T00:40:25.052Z,87.30
2019-03-03T00:41:25.040Z,87.51
2019-03-03T00:42:25.039Z,87.37
2019-03-03T00:43:25.014Z,87.62
2019-03-03T00:44:25.005Z,87.51
2019-03-03T00:45:24.994Z,87.10
2019-03-03T00:46:25.008Z,87.10
2019-03-03T00:47:25.130Z,87.93
2019-03-03T00:48:24.974Z,87.62
2019-03-03T00:49:24.954Z,88.13
2019-03-03T00:50:24.936Z,88.24
2019-03-03T00:51:24.978Z,88.20
2019-03-03T00:52:24.992Z,88.13
2019-03-03T00:53:24.913Z,88.13
2019-03-03T00:54:24.898Z,88.55
2019-03-03T00:55:24.957Z,89.13
2019-03-03T00:56:24.870Z,89.03
2019-03-03T00:57:24.864Z,89.17
2019-03-03T00:58:24.871Z,89.03
2019-03-03T00:59:24.840Z,89.03
2019-03-03T01:00:24.827Z,88.82
2019-03-03T01:01:24.820Z,88.82
2019-03-03T01:02:24.804Z,88.82
2019-03-03T01:03:24.812Z,88.82
2019-03-03T01:04:24.780Z,88.71
2019-03-03T01:05:24.772Z,88.92
2019-03-03T01:06:24.756Z,88.92
2019-03-03T01:07:24.746Z,88.78
2019-03-03T01:08:24.756Z,88.78
2019-03-03T01:09:24.733Z,88.98
2019-03-03T01:10:24.712Z,88.36
2019-03-03T01:11:24.704Z,89.19
2019-03-03T01:12:24.698Z,89.09
2019-03-03T01:13:24.700Z,89.09
2019-03-03T01:14:24.673Z,89.09
2019-03-03T01:15:24.661Z,89.09
2019-03-03T01:16:24.649Z,89.09
2019-03-03T01:17:24.642Z,89.19
2019-03-03T01:18:24.656Z,89.19
2019-03-03T01:19:24.614Z,88.98
2019-03-03T01:20:24.601Z,89.19
2019-03-03T01:21:24.588Z,89.09
2019-03-03T01:22:24.580Z,88.94
2019-03-03T01:23:24.564Z,88.94
2019-03-03T01:24:24.584Z,88.74
2019-03-03T01:25:24.561Z,88.64
2019-03-03T01:26:24.534Z,88.78
2019-03-03T01:27:24.534Z,89.46
2019-03-03T01:28:24.521Z,88.94
2019-03-03T01:29:24.522Z,89.15
2019-03-03T01:30:24.491Z,89.04
2019-03-03T01:31:24.480Z,89.25
2019-03-03T01:32:24.472Z,89.87
2019-03-03T01:33:24.452Z,89.77
2019-03-03T01:34:24.467Z,89.98
2019-03-03T01:35:24.442Z,91.01
2019-03-03T01:36:24.431Z,91.01
2019-03-03T01:37:24.409Z,91.22
2019-03-03T01:38:24.404Z,91.84
2019-03-03T01:39:24.408Z,91.32
2019-03-03T01:40:24.394Z,91.84
2019-03-03T01:41:24.368Z,91.63
2019-03-03T01:42:24.359Z,92.57
2019-03-03T01:43:24.349Z,92.05
2019-03-03T01:44:24.362Z,92.46
2019-03-03T01:45:24.328Z,92.36
2019-03-03T01:46:24.310Z,92.61
2019-03-03T01:47:24.474Z,92.57
2019-03-03T01:48:24.290Z,92.97
2019-03-03T01:49:24.277Z,92.77
2019-03-03T01:50:24.286Z,93.18
2019-03-03T01:51:24.258Z,94.32
2019-03-03T01:52:24.245Z,94.01
2019-03-03T01:53:24.235Z,93.70
2019-03-03T01:54:24.226Z,93.91
2019-03-03T01:55:24.242Z,93.70
2019-03-03T01:56:24.214Z,93.49
2019-03-03T01:57:24.202Z,93.80
2019-03-03T01:58:24.181Z,93.70
2019-03-03T01:59:24.166Z,94.22
2019-03-03T02:00:24.175Z,94.73
2019-03-03T02:01:24.142Z,94.53
2019-03-03T02:02:24.139Z,94.12
2019-03-03T02:03:24.129Z,94.32
2019-03-03T02:04:24.112Z,94.07
2019-03-03T02:05:24.122Z,94.01
2019-03-03T02:06:24.092Z,94.53
2019-03-03T02:07:24.075Z,94.32
2019-03-03T02:08:24.065Z,94.32
2019-03-03T02:09:24.053Z,94.01
2019-03-03T02:10:24.054Z,94.22
2019-03-03T02:11:24.048Z,94.22
2019-03-03T02:12:24.024Z,94.01
2019-03-03T02:13:24.010Z,93.97
2019-03-03T02:14:23.998Z,94.07
2019-03-03T02:15:23.989Z,94.01
2019-03-03T02:16:23.997Z,94.22
2019-03-03T02:17:23.965Z,93.87
2019-03-03T02:18:23.961Z,94.53
2019-03-03T02:19:23.941Z,94.79
2019-03-03T02:20:23.938Z,94.22
2019-03-03T02:21:23.941Z,94.59
2019-03-03T02:22:23.911Z,94.84
2019-03-03T02:23:23.893Z,95.04
2019-03-03T02:24:23.885Z,95.77
2019-03-03T02:25:23.879Z,95.62
2019-03-03T02:26:23.887Z,95.52
2019-03-03T02:27:23.858Z,95.56
2019-03-03T02:28:23.840Z,95.42
2019-03-03T02:29:23.829Z,95.21
2019-03-03T02:30:23.826Z,95.21
2019-03-03T02:31:23.862Z,95.21
2019-03-03T02:32:23.796Z,95.31
2019-03-03T02:33:23.789Z,96.03
2019-03-03T02:34:23.774Z,95.83
2019-03-03T02:35:23.798Z,95.83
2019-03-03T02:36:23.756Z,95.83
2019-03-03T02:37:23.770Z,95.31
2019-03-03T02:38:23.724Z,95.10
2019-03-03T02:39:23.727Z,95.21
2019-03-03T02:40:23.714Z,95.21
2019-03-03T02:41:23.698Z,95.10
2019-03-03T02:42:23.713Z,95.10
2019-03-03T02:43:23.674Z,94.79
2019-03-03T02:44:23.661Z,95.06
2019-03-03T02:45:23.651Z,95.99
2019-03-03T02:46:23.644Z,95.17
2019-03-03T02:47:23.661Z,95.27
2019-03-03T02:48:23.624Z,95.68
2019-03-03T02:49:23.614Z,95.78
2019-03-03T02:50:23.596Z,95.57
2019-03-03T02:51:23.585Z,96.61
2019-03-03T02:52:23.684Z,96.20
2019-03-03T02:53:23.559Z,97.02
2019-03-03T02:54:23.553Z,96.82
2019-03-03T02:55:23.542Z,96.82
2019-03-03T02:56:23.546Z,97.13
2019-03-03T02:57:23.541Z,97.44
2019-03-03T02:58:23.511Z,97.33
2019-03-03T02:59:23.498Z,97.64
2019-03-03T03:00:23.491Z,97.85
2019-03-03T03:01:23.471Z,98.27
2019-03-03T03:02:23.459Z,97.64
2019-03-03T03:03:23.478Z,97.96
2019-03-03T03:04:23.445Z,98.16
2019-03-03T03:05:23.432Z,98.37
2019-03-03T03:06:23.418Z,98.16
2019-03-03T03:07:23.410Z,99.09
2019-03-03T03:08:23.415Z,98.99
2019-03-03T03:09:23.387Z,99.09
2019-03-03T03:10:23.377Z,98.78
2019-03-03T03:11:23.365Z,99.30
2019-03-03T03:12:23.355Z,99.30
2019-03-03T03:13:23.363Z,98.99
2019-03-03T03:14:23.326Z,98.78
2019-03-03T03:15:23.324Z,99.40
2019-03-03T03:16:23.301Z,99.40
2019-03-03T03:17:23.300Z,99.61
2019-03-03T03:18:23.308Z,99.30
2019-03-03T03:19:23.277Z,99.40
2019-03-03T03:20:23.261Z,99.51
2019-03-03T03:21:23.258Z,99.40
2019-03-03T03:22:23.240Z,99.09
2019-03-03T03:23:23.238Z,99.61
2019-03-03T03:24:23.221Z,99.82
2019-03-03T03:25:23.217Z,99.71
2019-03-03T03:26:23.202Z,99.82
2019-03-03T03:27:23.194Z,99.92
2019-03-03T03:28:23.193Z,99.92
2019-03-03T03:29:23.183Z,99.30
2019-03-03T03:30:23.158Z,99.51
2019-03-03T03:31:23.145Z,99.77
2019-03-03T03:32:23.125Z,99.51
2019-03-03T03:33:23.127Z,99.71
2019-03-03T03:34:23.148Z,99.99
2019-03-03T03:35:23.088Z,99.71
2019-03-03T03:36:23.078Z,99.40
2019-03-03T03:37:23.078Z,99.82
2019-03-03T03:38:23.061Z,99.61
2019-03-03T03:39:23.067Z,99.99
2019-03-03T03:40:23.043Z,99.71
2019-03-03T03:41:23.028Z,99.71
2019-03-03T03:42:23.017Z,99.51
2019-03-03T03:43:23.004Z,99.51
2019-03-03T03:44:23.011Z,99.87
2019-03-03T03:45:22.983Z,99.71
2019-03-03T03:46:22.972Z,99.71
2019-03-03T03:47:22.958Z,99.82
2019-03-03T03:48:23.000Z,99.66
2019-03-03T03:49:22.974Z,99.87
2019-03-03T03:50:22.932Z,99.56
2019-03-03T03:51:22.914Z,99.46
2019-03-03T03:52:22.912Z,99.15
2019-03-03T03:53:22.891Z,99.56
2019-03-03T03:54:22.879Z,99.25
2019-03-03T03:55:22.911Z,99.15
2019-03-03T03:56:22.859Z,99.15
2019-03-03T03:57:22.864Z,99.05
2019-03-03T03:58:22.854Z,98.74
2019-03-03T03:59:22.843Z,99.05
2019-03-03T04:00:22.840Z,99.15
2019-03-03T04:01:22.802Z,98.84
2019-03-03T04:02:22.791Z,98.94
2019-03-03T04:03:22.786Z,99.15
2019-03-03T04:04:22.766Z,99.05
2019-03-03T04:05:22.793Z,99.46
2019-03-03T04:06:22.785Z,99.15
2019-03-03T04:07:22.738Z,99.25
2019-03-03T04:08:22.723Z,99.15
2019-03-03T04:09:22.724Z,99.15
2019-03-03T04:10:22.726Z,99.15
2019-03-03T04:11:22.686Z,98.32
2019-03-03T04:12:22.685Z,98.53
2019-03-03T04:13:22.683Z,98.53
2019-03-03T04:14:22.657Z,98.53
2019-03-03T04:15:22.654Z,98.74
2019-03-03T04:16:22.660Z,98.11
2019-03-03T04:17:22.624Z,98.32
2019-03-03T04:18:22.613Z,98.53
2019-03-03T04:19:22.606Z,98.53
2019-03-03T04:20:22.593Z,98.53
2019-03-03T04:21:22.608Z,98.63
2019-03-03T04:22:22.568Z,98.22
2019-03-03T04:23:22.555Z,98.22
2019-03-03T04:24:22.549Z,98.11
2019-03-03T04:25:22.536Z,98.32
2019-03-03T04:26:22.536Z,98.18
2019-03-03T04:27:22.510Z,97.86
2019-03-03T04:28:22.500Z,97.86
2019-03-03T04:29:22.489Z,98.22
2019-03-03T04:30:22.484Z,98.07
2019-03-03T04:31:22.485Z,97.97
2019-03-03T04:32:22.460Z,97.76
2019-03-03T04:33:22.441Z,97.86
2019-03-03T04:34:22.434Z,97.86
2019-03-03T04:35:22.421Z,97.86
2019-03-03T04:36:22.427Z,97.20
2019-03-03T04:37:22.398Z,96.58
2019-03-03T04:38:22.393Z,96.69
2019-03-03T04:39:22.372Z,97.09
2019-03-03T04:40:22.369Z,97.25
2019-03-03T04:41:22.386Z,97.30
2019-03-03T04:42:22.342Z,96.31
2019-03-03T04:43:22.327Z,96.48
2019-03-03T04:44:22.315Z,96.58
2019-03-03T04:45:22.309Z,96.17
2019-03-03T04:46:22.295Z,96.58
2019-03-03T04:47:22.299Z,96.94
2019-03-03T04:48:22.275Z,97.20
2019-03-03T04:49:22.264Z,96.58
2019-03-03T04:50:22.249Z,96.58
2019-03-03T04:51:22.241Z,96.99
2019-03-03T04:52:22.244Z,96.06
2019-03-03T04:53:22.224Z,95.76
2019-03-03T04:54:22.213Z,96.06
2019-03-03T04:55:22.200Z,96.17
2019-03-03T04:56:22.180Z,95.65
2019-03-03T04:57:22.190Z,96.27
2019-03-03T04:58:22.160Z,96.27
2019-03-03T04:59:22.150Z,96.27
2019-03-03T05:00:22.144Z,95.76
2019-03-03T05:01:22.136Z,95.76
2019-03-03T05:02:22.144Z,95.61
2019-03-03T05:03:22.106Z,95.71
2019-03-03T05:04:22.099Z,95.65
2019-03-03T05:05:22.142Z,95.45
2019-03-03T05:06:22.073Z,95.65
2019-03-03T05:07:22.086Z,95.61
2019-03-03T05:08:22.047Z,95.34
2019-03-03T05:09:22.037Z,95.40
2019-03-03T05:10:22.032Z,95.61
2019-03-03T05:11:22.017Z,95.09
2019-03-03T05:12:22.034Z,95.09
2019-03-03T05:13:22.016Z,95.09
2019-03-03T05:14:21.982Z,95.09
2019-03-03T05:15:21.970Z,94.89
2019-03-03T05:16:21.972Z,94.99
2019-03-03T05:17:21.948Z,94.89
2019-03-03T05:18:21.954Z,95.40
2019-03-03T05:19:21.930Z,95.30
2019-03-03T05:20:21.912Z,95.20
2019-03-03T05:21:21.903Z,95.50
2019-03-03T05:22:21.892Z,94.37
2019-03-03T05:23:21.904Z,94.37
2019-03-03T05:24:21.878Z,94.57
2019-03-03T05:25:23.006Z,94.68
2019-03-03T05:26:21.846Z,93.96
2019-03-03T05:27:21.836Z,93.96
2019-03-03T05:28:21.856Z,94.23
2019-03-03T05:29:21.816Z,94.43
2019-03-03T05:30:21.805Z,94.37
2019-03-03T05:31:21.788Z,94.23
2019-03-03T05:32:21.782Z,94.32
2019-03-03T05:33:21.793Z,94.32
2019-03-03T05:34:21.754Z,94.32
2019-03-03T05:35:21.750Z,94.32
2019-03-03T05:36:21.732Z,94.32
2019-03-03T05:37:21.729Z,94.32
2019-03-03T05:38:21.740Z,94.23
2019-03-03T05:39:21.708Z,94.32
2019-03-03T05:40:21.696Z,93.81
2019-03-03T05:41:21.686Z,93.91
2019-03-03T05:42:21.672Z,93.81
2019-03-03T05:43:21.656Z,93.91
2019-03-03T05:44:21.664Z,93.77
2019-03-03T05:45:21.637Z,94.23
2019-03-03T05:46:21.626Z,94.38
2019-03-03T05:47:21.622Z,93.25
2019-03-03T05:48:21.601Z,93.15
2019-03-03T05:49:21.618Z,93.66
2019-03-03T05:50:21.579Z,93.66
2019-03-03T05:51:21.567Z,93.35
2019-03-03T05:52:21.562Z,93.25
2019-03-03T05:53:21.552Z,93.35
2019-03-03T05:54:21.553Z,93.56
2019-03-03T05:55:21.524Z,93.66
2019-03-03T05:56:21.515Z,93.66
2019-03-03T05:57:21.498Z,93.35
2019-03-03T05:58:21.493Z,93.11
2019-03-03T05:59:21.586Z,93.11
2019-03-03T06:00:21.467Z,92.84
2019-03-03T06:01:21.454Z,92.90
2019-03-03T06:02:21.448Z,92.59
2019-03-03T06:03:21.442Z,92.49
2019-03-03T06:04:21.452Z,92.49
2019-03-03T06:05:21.424Z,92.69
2019-03-03T06:06:21.396Z,92.59
2019-03-03T06:07:21.386Z,92.38
2019-03-03T06:08:21.378Z,92.34
2019-03-03T06:09:21.398Z,92.29
2019-03-03T06:10:21.358Z,91.87
2019-03-03T06:11:21.348Z,92.18
2019-03-03T06:12:21.338Z,91.66
2019-03-03T06:13:21.323Z,91.66
2019-03-03T06:14:21.310Z,91.77
2019-03-03T06:15:21.318Z,91.36
2019-03-03T06:16:21.291Z,91.72
2019-03-03T06:17:21.274Z,91.31
2019-03-03T06:18:21.261Z,91.21
2019-03-03T06:19:21.258Z,91.21
2019-03-03T06:20:21.264Z,91.52
2019-03-03T06:21:21.236Z,91.42
2019-03-03T06:22:21.220Z,91.42
2019-03-03T06:23:21.218Z,91.42
2019-03-03T06:24:21.196Z,91.11
2019-03-03T06:25:21.208Z,91.31
2019-03-03T06:26:21.178Z,91.21
2019-03-03T06:27:21.172Z,91.21
2019-03-03T06:28:21.154Z,91.31
2019-03-03T06:29:21.140Z,91.21
2019-03-03T06:30:21.155Z,91.31
2019-03-03T06:31:21.120Z,91.11
2019-03-03T06:32:21.132Z,90.90
2019-03-03T06:33:21.106Z,90.90
2019-03-03T06:34:21.089Z,91.00
2019-03-03T06:35:21.091Z,91.11
2019-03-03T06:36:21.069Z,90.69
2019-03-03T06:37:21.050Z,90.66
2019-03-03T06:38:21.041Z,90.34
2019-03-03T06:39:21.032Z,90.39
2019-03-03T06:40:21.040Z,90.34
2019-03-03T06:41:21.013Z,90.66
2019-03-03T06:42:21.001Z,90.34
2019-03-03T06:43:20.990Z,90.55
2019-03-03T06:44:20.981Z,90.75
2019-03-03T06:45:20.986Z,90.03
2019-03-03T06:46:20.950Z,89.48
2019-03-03T06:47:20.940Z,89.73
2019-03-03T06:48:20.934Z,89.79
2019-03-03T06:49:20.922Z,89.69
2019-03-03T06:50:20.928Z,89.73
2019-03-03T06:51:20.904Z,89.69
2019-03-03T06:52:20.891Z,89.69
2019-03-03T06:53:20.872Z,89.58
2019-03-03T06:54:20.862Z,89.17
2019-03-03T06:55:20.875Z,89.48
2019-03-03T06:56:20.865Z,88.96
2019-03-03T06:57:20.840Z,88.86
2019-03-03T06:58:20.814Z,88.96
2019-03-03T06:59:20.806Z,88.66
2019-03-03T07:00:20.799Z,88.62
2019-03-03T07:01:20.806Z,88.31
2019-03-03T07:02:20.777Z,88.51
2019-03-03T07:03:20.764Z,88.62
2019-03-03T07:04:20.754Z,88.72
2019-03-03T07:05:20.758Z,88.20
2019-03-03T07:06:20.740Z,88.27
2019-03-03T07:07:20.722Z,88.06
2019-03-03T07:08:20.711Z,88.06
2019-03-03T07:09:20.696Z,88.17
2019-03-03T07:10:20.705Z,88.47
2019-03-03T07:11:20.671Z,88.47
2019-03-03T07:12:20.708Z,88.62
2019-03-03T07:13:20.662Z,87.13
2019-03-03T07:14:20.639Z,87.75
2019-03-03T07:15:20.628Z,86.21
2019-03-03T07:16:20.649Z,86.72
2019-03-03T07:17:20.606Z,86.42
2019-03-03T07:18:20.620Z,86.62
2019-03-03T07:19:20.584Z,86.93
2019-03-03T07:20:20.574Z,86.93
2019-03-03T07:21:20.576Z,85.80
2019-03-03T07:22:20.550Z,85.70
2019-03-03T07:23:20.589Z,86.48
2019-03-03T07:24:20.531Z,86.07
2019-03-03T07:25:20.508Z,85.14
2019-03-03T07:26:20.518Z,85.66
2019-03-03T07:27:20.494Z,85.46
2019-03-03T07:28:20.492Z,84.74
2019-03-03T07:29:20.468Z,85.14
2019-03-03T07:30:20.469Z,84.63
2019-03-03T07:31:20.468Z,84.84
2019-03-03T07:32:20.436Z,85.11
2019-03-03T07:33:20.463Z,83.87
2019-03-03T07:34:20.438Z,83.87
2019-03-03T07:35:20.407Z,83.67
2019-03-03T07:36:20.462Z,83.77
2019-03-03T07:37:20.404Z,83.98
2019-03-03T07:38:20.372Z,83.73
2019-03-03T07:39:20.354Z,83.63
2019-03-03T07:40:20.348Z,83.15
2019-03-03T07:41:20.348Z,82.81
2019-03-03T07:42:20.348Z,82.81
2019-03-03T07:43:20.310Z,82.91
2019-03-03T07:44:20.302Z,82.40
2019-03-03T07:45:20.307Z,82.50
2019-03-03T07:46:20.278Z,82.19
2019-03-03T07:47:20.280Z,81.74
2019-03-03T07:48:20.336Z,81.54
2019-03-03T07:49:20.256Z,81.23
2019-03-03T07:50:20.238Z,80.92
2019-03-03T07:51:20.238Z,80.72
2019-03-03T07:52:20.250Z,80.21
2019-03-03T07:53:20.206Z,80.10
2019-03-03T07:54:20.186Z,79.80
2019-03-03T07:55:20.194Z,79.38
2019-03-03T07:56:20.170Z,79.28
2019-03-03T07:57:20.181Z,79.24
2019-03-03T07:58:20.153Z,79.55
2019-03-03T07:59:20.143Z,78.63
2019-03-03T08:00:20.134Z,78.32
2019-03-03T08:01:20.113Z,78.12
2019-03-03T08:02:20.372Z,78.32
2019-03-03T08:03:20.091Z,78.39
2019-03-03T08:04:20.092Z,78.32
2019-03-03T08:05:20.072Z,78.39
2019-03-03T08:06:20.054Z,78.08
2019-03-03T08:07:20.062Z,77.91
2019-03-03T08:08:20.050Z,78.19
2019-03-03T08:09:20.056Z,77.77
2019-03-03T08:10:20.020Z,76.95
2019-03-03T08:11:20.026Z,76.75
2019-03-03T08:12:19.984Z,76.54
2019-03-03T08:13:20.010Z,76.14
2019-03-03T08:14:19.984Z,76.40
2019-03-03T08:15:19.960Z,76.20
2019-03-03T08:16:19.971Z,76.10
2019-03-03T08:17:19.932Z,75.48
2019-03-03T08:18:20.236Z,75.79
2019-03-03T08:19:19.917Z,75.69
2019-03-03T08:20:19.916Z,75.04
2019-03-03T08:21:19.895Z,74.53
2019-03-03T08:22:19.892Z,74.73
2019-03-03T08:23:19.882Z,74.43
2019-03-03T08:24:20.795Z,73.81
2019-03-03T08:25:19.849Z,73.78
2019-03-03T08:26:19.832Z,73.16
2019-03-03T08:27:19.846Z,73.16
2019-03-03T08:28:19.843Z,73.16
2019-03-03T08:29:19.796Z,72.86
2019-03-03T08:30:19.783Z,72.62
2019-03-03T08:31:19.786Z,73.23
2019-03-03T08:32:19.801Z,72.75
2019-03-03T08:33:19.780Z,72.45
2019-03-03T08:34:19.738Z,72.86
2019-03-03T08:35:19.728Z,72.75
2019-03-03T08:36:19.722Z,72.41
2019-03-03T08:37:19.735Z,72.21
2019-03-03T08:38:19.719Z,71.90
2019-03-03T08:39:19.682Z,71.80
2019-03-03T08:40:19.671Z,71.70
2019-03-03T08:41:19.661Z,70.98
2019-03-03T08:42:19.660Z,70.88
2019-03-03T08:43:19.669Z,70.26
2019-03-03T08:44:19.636Z,70.75
2019-03-03T08:45:19.662Z,70.95
2019-03-03T08:46:19.604Z,70.64
2019-03-03T08:47:19.592Z,70.64
2019-03-03T08:48:19.597Z,70.98
2019-03-03T08:49:19.570Z,71.77
2019-03-03T08:50:19.563Z,71.49
2019-03-03T08:51:19.548Z,71.08
2019-03-03T08:52:19.539Z,71.08
2019-03-03T08:53:19.547Z,71.08
2019-03-03T08:54:19.511Z,71.70
2019-03-03T08:55:19.506Z,70.98
2019-03-03T08:56:19.504Z,71.19
2019-03-03T08:57:19.476Z,71.70
2019-03-03T08:58:19.515Z,71.39
2019-03-03T08:59:19.453Z,71.39
2019-03-03T09:00:19.471Z,70.98
2019-03-03T09:01:19.437Z,71.39
2019-03-03T09:02:19.424Z,70.88
2019-03-03T09:03:19.413Z,71.80
2019-03-03T09:04:19.465Z,71.59
2019-03-03T09:05:19.392Z,71.80
2019-03-03T09:06:19.377Z,70.88
2019-03-03T09:07:19.375Z,72.11
2019-03-03T09:08:19.375Z,74.05
2019-03-03T09:09:19.371Z,75.27
2019-03-03T09:10:25.388Z,75.82
2019-03-03T09:11:20.328Z,77.67
2019-03-03T09:12:19.312Z,76.34
2019-03-03T09:13:19.313Z,76.43
2019-03-03T09:14:19.310Z,77.05
2019-03-03T09:15:19.273Z,77.46
2019-03-03T09:16:19.266Z,76.43
2019-03-03T09:17:19.257Z,75.62
2019-03-03T09:18:19.250Z,76.64
2019-03-03T09:19:19.267Z,76.13
2019-03-03T09:20:19.219Z,75.72
2019-03-03T09:21:19.218Z,76.13
2019-03-03T09:22:19.209Z,75.10
2019-03-03T09:23:19.185Z,75.82
2019-03-03T09:24:19.198Z,75.52
2019-03-03T09:25:19.167Z,76.03
2019-03-03T09:26:19.150Z,75.21
2019-03-03T09:27:19.150Z,75.01
2019-03-03T09:28:19.140Z,74.69
2019-03-03T09:29:19.149Z,74.49
2019-03-03T09:30:19.134Z,74.19
2019-03-03T09:31:19.125Z,75.01
2019-03-03T09:32:19.079Z,73.88
2019-03-03T09:33:19.072Z,74.60
2019-03-03T09:34:19.061Z,73.88
2019-03-03T09:35:19.067Z,74.08
2019-03-03T09:36:19.479Z,73.36
2019-03-03T09:37:19.034Z,73.68
2019-03-03T09:38:19.012Z,73.27
2019-03-03T09:39:19.013Z,72.96
2019-03-03T09:40:19.018Z,73.03
2019-03-03T09:41:18.985Z,72.41
2019-03-03T09:42:18.970Z,72.52
2019-03-03T09:43:18.960Z,72.52
2019-03-03T09:44:18.949Z,72.31
2019-03-03T09:45:18.953Z,72.52
2019-03-03T09:46:18.926Z,71.90
2019-03-03T09:47:18.919Z,71.56
2019-03-03T09:48:18.903Z,71.90
2019-03-03T09:49:18.889Z,71.77
2019-03-03T09:50:18.913Z,71.87
2019-03-03T09:51:18.872Z,71.56
2019-03-03T09:52:18.858Z,71.56
2019-03-03T09:53:18.851Z,70.84
2019-03-03T09:54:18.833Z,71.56
2019-03-03T09:55:18.822Z,71.53
2019-03-03T09:56:18.842Z,70.95
2019-03-03T09:57:18.800Z,71.05
2019-03-03T09:58:18.798Z,71.36
2019-03-03T09:59:18.788Z,71.36
2019-03-03T10:00:18.769Z,71.63
2019-03-03T10:01:18.780Z,71.22
2019-03-03T10:02:18.750Z,72.14
2019-03-03T10:03:18.737Z,72.34
2019-03-03T10:04:18.729Z,72.96
2019-03-03T10:05:18.710Z,73.47
2019-03-03T10:06:18.723Z,73.27
2019-03-03T10:07:18.707Z,73.77
2019-03-03T10:08:18.696Z,72.99
2019-03-03T10:09:18.664Z,73.50
2019-03-03T10:10:18.661Z,74.32
2019-03-03T10:11:18.674Z,73.71
2019-03-03T10:12:18.646Z,73.94
2019-03-03T10:13:18.624Z,72.99
2019-03-03T10:14:18.610Z,73.10
2019-03-03T10:15:18.602Z,73.40
2019-03-03T10:16:18.585Z,72.99
2019-03-03T10:17:18.599Z,72.69
2019-03-03T10:18:18.568Z,73.20
2019-03-03T10:19:18.551Z,72.58
2019-03-03T10:20:18.546Z,72.55
2019-03-03T10:21:18.536Z,72.48
2019-03-03T10:22:18.534Z,72.34
2019-03-03T10:23:18.513Z,72.07
2019-03-03T10:24:18.507Z,72.48
2019-03-03T10:25:18.508Z,72.34
2019-03-03T10:26:18.496Z,72.89
2019-03-03T10:27:18.496Z,72.34
2019-03-03T10:28:18.450Z,72.55
2019-03-03T10:29:18.439Z,73.06
2019-03-03T10:30:18.440Z,72.86
2019-03-03T10:31:18.432Z,72.96
2019-03-03T10:32:18.431Z,72.45
2019-03-03T10:33:18.401Z,72.34
2019-03-03T10:34:18.382Z,72.45
2019-03-03T10:35:18.424Z,72.65
2019-03-03T10:36:18.395Z,72.65
2019-03-03T10:37:18.354Z,72.55
2019-03-03T10:38:18.356Z,72.34
2019-03-03T10:39:18.325Z,72.34
2019-03-03T10:40:18.315Z,71.94
2019-03-03T10:41:18.303Z,71.63
2019-03-03T10:42:18.296Z,71.73
2019-03-03T10:43:18.313Z,71.53
2019-03-03T10:44:18.279Z,71.33
2019-03-03T10:45:18.262Z,71.42
2019-03-03T10:46:18.249Z,70.81
2019-03-03T10:47:18.234Z,70.92
2019-03-03T10:48:18.243Z,71.19
2019-03-03T10:49:18.238Z,71.39
2019-03-03T10:50:18.225Z,71.29
2019-03-03T10:51:18.256Z,71.39
2019-03-03T10:52:18.236Z,72.31
2019-03-03T10:53:18.186Z,72.72
2019-03-03T10:54:18.186Z,73.13
2019-03-03T10:55:18.155Z,73.13
2019-03-03T10:56:18.177Z,74.90
2019-03-03T10:57:18.132Z,74.69
2019-03-03T10:58:18.150Z,75.71
2019-03-03T10:59:18.099Z,75.31
2019-03-03T11:00:18.106Z,75.65
2019-03-03T11:01:18.079Z,76.74
2019-03-03T11:02:18.069Z,76.06
2019-03-03T11:03:18.059Z,76.26
2019-03-03T11:04:18.241Z,76.12
2019-03-03T11:05:18.036Z,77.45
2019-03-03T11:06:18.038Z,75.92
2019-03-03T11:07:18.016Z,76.16
2019-03-03T11:08:18.040Z,76.23
2019-03-03T11:09:18.024Z,76.43
2019-03-03T11:10:17.983Z,77.11
2019-03-03T11:11:17.990Z,76.09
2019-03-03T11:12:17.961Z,76.09
2019-03-03T11:13:17.951Z,76.06
2019-03-03T11:14:17.966Z,74.97
2019-03-03T11:15:18.687Z,75.04
2019-03-03T11:16:17.907Z,73.81
2019-03-03T11:17:17.915Z,74.25
2019-03-03T11:18:17.892Z,73.64
2019-03-03T11:19:19.981Z,73.64
2019-03-03T11:20:17.906Z,73.44
2019-03-03T11:21:17.857Z,73.33
2019-03-03T11:22:17.927Z,73.03
2019-03-03T11:23:17.832Z,72.72
2019-03-03T11:24:17.824Z,72.82
2019-03-03T11:25:17.829Z,72.79
2019-03-03T11:26:17.799Z,72.48
2019-03-03T11:27:17.821Z,72.58
2019-03-03T11:28:23.727Z,72.28
2019-03-03T11:29:18.775Z,72.07
2019-03-03T11:30:17.783Z,72.28
2019-03-03T11:31:17.761Z,72.07
2019-03-03T11:32:17.744Z,71.87
2019-03-03T11:33:17.726Z,72.07
2019-03-03T11:34:17.718Z,71.91
2019-03-03T11:35:17.695Z,71.56
2019-03-03T11:36:17.747Z,71.56
2019-03-03T11:37:17.679Z,71.67
2019-03-03T11:38:17.661Z,71.91
2019-03-03T11:39:17.684Z,71.77
2019-03-03T11:40:17.647Z,71.56
2019-03-03T11:41:17.651Z,71.56
2019-03-03T11:42:17.633Z,71.05
2019-03-03T11:43:17.606Z,71.15
2019-03-03T11:44:17.591Z,71.39
2019-03-03T11:45:17.587Z,71.67
2019-03-03T11:46:17.617Z,71.05
2019-03-03T11:47:18.895Z,71.36
2019-03-03T11:48:19.706Z,71.05
2019-03-03T11:49:17.538Z,72.17
2019-03-03T11:50:17.522Z,72.31
2019-03-03T11:51:17.543Z,72.89
2019-03-03T11:52:17.512Z,72.48
2019-03-03T11:53:17.497Z,72.99
2019-03-03T11:54:17.478Z,72.72
2019-03-03T11:55:17.473Z,72.92
2019-03-03T11:56:17.522Z,73.33
2019-03-03T11:57:17.453Z,73.33
2019-03-03T11:58:17.441Z,73.33
2019-03-03T11:59:17.436Z,73.33
2019-03-03T12:00:17.415Z,73.94
2019-03-03T12:01:17.402Z,74.05
2019-03-03T12:02:17.412Z,74.35
2019-03-03T12:03:17.400Z,74.87
2019-03-03T12:04:17.422Z,74.56
2019-03-03T12:05:17.360Z,75.10
2019-03-03T12:06:17.378Z,76.03
2019-03-03T12:07:17.385Z,75.92
2019-03-03T12:08:17.338Z,76.64
2019-03-03T12:09:17.319Z,76.84
2019-03-03T12:10:17.309Z,76.03
2019-03-03T12:11:17.310Z,76.12
2019-03-03T12:12:17.423Z,76.12
2019-03-03T12:13:17.276Z,76.12
2019-03-03T12:14:17.281Z,76.33
2019-03-03T12:15:17.249Z,75.82
2019-03-03T12:16:17.241Z,76.23
2019-03-03T12:17:17.245Z,77.35
2019-03-03T12:18:17.207Z,78.11
2019-03-03T12:19:17.207Z,79.02
2019-03-03T12:20:17.191Z,78.27
2019-03-03T12:21:17.221Z,79.33
2019-03-03T12:22:17.188Z,79.33
2019-03-03T12:23:17.303Z,79.74
2019-03-03T12:24:17.145Z,81.82
2019-03-03T12:25:17.141Z,81.82
2019-03-03T12:26:17.119Z,82.54
2019-03-03T12:27:17.115Z,83.46
2019-03-03T12:28:17.123Z,83.56
2019-03-03T12:29:17.086Z,84.93
2019-03-03T12:30:17.083Z,85.34
2019-03-03T12:31:17.077Z,84.31
2019-03-03T12:32:17.050Z,85.96
2019-03-03T12:33:17.060Z,83.70
2019-03-03T12:34:17.030Z,84.11
2019-03-03T12:35:17.018Z,84.58
2019-03-03T12:36:17.020Z,84.89
2019-03-03T12:37:17.001Z,83.05
2019-03-03T12:38:17.019Z,83.36
2019-03-03T12:39:16.970Z,83.46
2019-03-03T12:40:16.960Z,82.95
2019-03-03T12:41:16.961Z,83.36
2019-03-03T12:42:16.953Z,83.66
2019-03-03T12:43:16.936Z,83.36
2019-03-03T12:44:16.958Z,83.46
2019-03-03T12:45:16.917Z,84.69
2019-03-03T12:46:16.896Z,82.75
2019-03-03T12:47:16.898Z,82.34
2019-03-03T12:48:16.881Z,82.60
2019-03-03T12:49:16.885Z,82.23
2019-03-03T12:50:16.851Z,83.46
2019-03-03T12:51:16.838Z,83.42
2019-03-03T12:52:16.833Z,82.29